Time;durP1;ratioP1;P1;durP2;ratioP2;P2;SDS_P1;SDS_P2;PMS_P1;PMS_P2;Temp;Humidity;BMP_temperature;BMP_pressure;BME280_temperature;BME280_humidity;BME280_pressure;Samples;Min_cycle;Max_cycle;Signal;HPM_P1;HPM_P2
2022/01/30 00:01:57;;;;;;;43.50;7.40;;;6.80;1.00;;;;;;4917033;29;20434;-49
2022/01/30 00:04:23;;;;;;;43.63;6.93;;;6.80;1.00;;;;;;4916682;29;20254;-49
2022/01/30 00:06:49;;;;;;;41.33;6.30;;;6.70;1.00;;;;;;4916968;29;20176;-49
2022/01/30 00:09:20;;;;;;;30.10;5.60;;;6.60;1.00;;;;;;4916630;29;20221;-49
2022/01/30 00:11:52;;;;;;;36.30;5.73;;;6.50;1.00;;;;;;4916729;29;20167;-49
2022/01/30 00:14:20;;;;;;;37.03;6.00;;;6.50;1.00;;;;;;4916560;29;20412;-49
2022/01/30 00:16:49;;;;;;;41.63;5.17;;;6.30;1.00;;;;;;4914927;29;20497;-49
2022/01/30 00:19:23;;;;;;;34.07;5.90;;;6.20;1.00;;;;;;4916408;29;20419;-49
2022/01/30 00:22:00;;;;;;;39.10;6.00;;;6.10;1.00;;;;;;4916644;29;20395;-49
2022/01/30 00:24:41;;;;;;;29.60;5.43;;;6.10;1.00;;;;;;4916006;29;20497;-49
2022/01/30 00:27:11;;;;;;;35.27;6.33;;;6.10;1.00;;;;;;4916239;29;20395;-49
2022/01/30 00:29:37;;;;;;;27.93;5.53;;;6.10;1.00;;;;;;4916186;29;20806;-49
2022/01/30 00:32:03;;;;;;;50.07;6.23;;;6.00;1.00;;;;;;4916269;29;20426;-49
2022/01/30 00:34:28;;;;;;;37.67;6.50;;;6.00;1.00;;;;;;4915792;29;20191;-49
2022/01/30 00:36:54;;;;;;;42.30;6.13;;;6.10;1.00;;;;;;4916330;29;20332;-48
2022/01/30 00:39:19;;;;;;;42.37;6.27;;;6.10;1.00;;;;;;4916059;29;20189;-49
2022/01/30 00:41:45;;;;;;;48.43;7.10;;;6.20;1.00;;;;;;4914943;29;20304;-49
2022/01/30 00:44:10;;;;;;;47.60;8.37;;;6.10;1.00;;;;;;4916239;29;20238;-49
2022/01/30 00:46:38;;;;;;;40.90;6.20;;;6.10;1.00;;;;;;4916581;29;20198;-49
2022/01/30 00:49:03;;;;;;;37.90;6.87;;;5.70;99.90;;;;;;4916282;29;20228;-58
2022/01/30 00:51:29;;;;;;;53.67;7.03;;;5.40;1.00;;;;;;4915972;29;20455;-49
2022/01/30 00:53:54;;;;;;;40.83;5.90;;;5.30;99.90;;;;;;4915937;29;20194;-48
2022/01/30 00:56:20;;;;;;;37.73;6.00;;;5.30;1.00;;;;;;4915557;29;20318;-49
2022/01/30 00:58:45;;;;;;;44.57;6.80;;;5.30;99.90;;;;;;4915685;29;20618;-48
2022/01/30 01:01:11;;;;;;;35.60;6.10;;;5.50;99.90;;;;;;4915706;29;20194;-48
2022/01/30 01:03:36;;;;;;;34.57;6.40;;;5.50;99.90;;;;;;4915827;29;20184;-48
2022/01/30 01:06:04;;;;;;;42.77;6.20;;;5.50;99.90;;;;;;4915724;29;20179;-48
2022/01/30 01:08:46;;;;;;;26.43;5.03;;;5.50;99.90;;;;;;4915783;29;20215;-48
2022/01/30 01:11:51;;;;;;;29.87;4.90;;;5.30;99.90;;;;;;4915793;29;20790;-49
2022/01/30 01:24:38;;;;;;;26.23;5.50;;;5.10;1.00;;;;;;4915279;29;20431;-49
2022/01/30 01:27:04;;;;;;;29.03;5.23;;;5.20;1.00;;;;;;4915214;29;20442;-48
2022/01/30 01:29:29;;;;;;;41.67;5.80;;;5.30;1.00;;;;;;4915133;29;20211;-48
2022/01/30 01:31:55;;;;;;;33.83;4.97;;;5.30;1.00;;;;;;4915353;29;20255;-49
2022/01/30 01:34:31;;;;;;;31.30;6.17;;;5.40;1.00;;;;;;4913673;29;20215;-49
2022/01/30 01:36:57;;;;;;;37.47;5.70;;;5.40;1.00;;;;;;4915214;29;20186;-49
2022/01/30 01:39:23;;;;;;;30.23;4.50;;;5.50;1.00;;;;;;4915282;29;20506;-49
2022/01/30 01:41:49;;;;;;;23.13;4.53;;;5.60;1.00;;;;;;4914794;29;20514;-49
2022/01/30 01:44:16;;;;;;;20.40;4.87;;;5.60;1.00;;;;;;4915097;29;20810;-49
2022/01/30 01:46:43;;;;;;;26.87;5.13;;;5.70;1.00;;;;;;4913609;29;20438;-48
2022/01/30 01:49:13;;;;;;;29.50;5.43;;;5.70;1.00;;;;;;4914773;29;20514;-49
2022/01/30 01:51:46;;;;;;;32.77;5.33;;;5.70;1.00;;;;;;4914870;29;20419;-49
2022/01/30 01:54:12;;;;;;;35.40;5.30;;;5.70;1.00;;;;;;4914755;29;21048;-49
2022/01/30 01:56:38;;;;;;;33.53;5.30;;;5.80;1.00;;;;;;4914613;29;20565;-49
2022/01/30 01:59:04;;;;;;;30.73;6.40;;;5.80;1.00;;;;;;4914832;29;20502;-49
2022/01/30 02:01:29;;;;;;;36.17;5.50;;;5.80;1.00;;;;;;4914319;29;20513;-49
2022/01/30 02:03:55;;;;;;;42.13;5.80;;;5.80;1.00;;;;;;4914567;29;20570;-48
2022/01/30 02:06:23;;;;;;;33.33;4.67;;;5.80;1.00;;;;;;4914616;29;20167;-51
2022/01/30 02:08:59;;;;;;;35.73;6.30;;;5.90;1.00;;;;;;4914434;29;20235;-52
2022/01/30 02:11:36;;;;;;;27.33;5.23;;;5.90;1.00;;;;;;4913777;29;20868;-52
2022/01/30 02:27:17;;;;;;;33.60;4.77;;;5.50;1.00;;;;;;4914373;29;20415;-52
2022/01/30 02:29:43;;;;;;;41.53;6.60;;;5.50;1.00;;;;;;4914276;29;20427;-52
2022/01/30 02:32:09;;;;;;;29.77;5.23;;;5.50;1.00;;;;;;4914286;29;20446;-52
2022/01/30 02:34:34;;;;;;;32.43;6.30;;;5.50;1.00;;;;;;4914132;29;20195;-52
2022/01/30 02:37:00;;;;;;;61.27;6.70;;;5.50;1.00;;;;;;4914327;29;20191;-52
2022/01/30 02:39:27;;;;;;;38.93;6.10;;;5.60;1.00;;;;;;4914137;29;20218;-52
2022/01/30 02:41:53;;;;;;;30.93;6.00;;;5.60;1.00;;;;;;4914200;29;20460;-51
2022/01/30 02:46:51;;;;;;;34.50;5.70;;;5.60;1.00;;;;;;4913756;29;20971;-52
2022/01/30 02:51:49;;;;;;;31.10;5.87;;;5.60;1.00;;;;;;4906666;29;20447;-52
2022/01/30 02:54:15;;;;;;;26.53;5.07;;;5.60;1.00;;;;;;4914276;29;20747;-52
2022/01/30 02:56:41;;;;;;;24.47;4.60;;;5.60;1.00;;;;;;4913814;29;20485;-51
2022/01/30 02:59:07;;;;;;;30.63;5.83;;;5.60;1.00;;;;;;4914003;29;20519;-52
2022/01/30 03:01:33;;;;;;;25.03;4.60;;;5.70;1.00;;;;;;4913916;29;20426;-52
2022/01/30 03:03:59;;;;;;;28.27;5.70;;;5.70;1.00;;;;;;4915226;29;20189;-53
2022/01/30 03:06:25;;;;;;;35.50;5.70;;;5.70;1.00;;;;;;4917905;29;20254;-52
2022/01/30 03:08:50;;;;;;;28.57;5.50;;;5.70;1.00;;;;;;4917613;29;20809;-51
2022/01/30 03:11:16;;;;;;;30.33;5.70;;;5.80;1.00;;;;;;4917820;29;20415;-52
2022/01/30 03:13:41;;;;;;;43.93;6.80;;;5.80;1.00;;;;;;4917776;29;20206;-51
2022/01/30 03:16:07;;;;;;;56.73;6.00;;;5.80;1.00;;;;;;4917689;29;20175;-52
2022/01/30 03:18:33;;;;;;;32.17;5.73;;;5.90;1.00;;;;;;4917682;29;20193;-52
2022/01/30 03:20:59;;;;;;;45.50;5.93;;;5.90;1.00;;;;;;4917245;29;20187;-52
2022/01/30 03:23:24;;;;;;;32.60;4.67;;;5.80;1.00;;;;;;4912326;29;20191;-52
2022/01/30 03:25:55;;;;;;;41.77;7.10;;;5.80;1.00;;;;;;4917803;29;20522;-52
2022/01/30 03:28:21;;;;;;;29.27;5.03;;;5.80;1.00;;;;;;4917585;29;20289;-51
2022/01/30 03:30:48;;;;;;;25.80;5.00;;;5.80;1.00;;;;;;4917552;29;20491;-52
2022/01/30 03:33:13;;;;;;;34.33;5.70;;;5.80;1.00;;;;;;4917365;29;20754;-52
2022/01/30 03:35:40;;;;;;;35.63;5.73;;;5.80;1.00;;;;;;4917521;29;20458;-51
2022/01/30 03:38:05;;;;;;;30.63;5.63;;;5.80;1.00;;;;;;4917480;29;20222;-51
2022/01/30 03:40:31;;;;;;;45.50;6.37;;;5.80;1.00;;;;;;4917174;29;20482;-52
2022/01/30 03:42:57;;;;;;;36.47;6.57;;;5.80;1.00;;;;;;4917220;29;20250;-51
2022/01/30 03:45:22;;;;;;;26.63;4.93;;;5.80;1.00;;;;;;4917742;29;20411;-51
2022/01/30 03:47:51;;;;;;;43.93;5.47;;;5.80;1.00;;;;;;4917160;29;20221;-51
2022/01/30 03:50:16;;;;;;;24.23;5.23;;;5.80;1.00;;;;;;4917346;29;20181;-51
2022/01/30 03:52:42;;;;;;;24.43;4.87;;;5.90;1.00;;;;;;4916887;29;20423;-52
2022/01/30 03:55:08;;;;;;;40.87;4.97;;;5.90;1.00;;;;;;4916721;29;20289;-52
2022/01/30 03:57:33;;;;;;;26.87;4.83;;;5.90;1.00;;;;;;4916960;29;20199;-52
2022/01/30 03:59:59;;;;;;;29.77;5.23;;;5.90;1.00;;;;;;4916729;29;20430;-51
2022/01/30 04:02:24;;;;;;;28.30;5.03;;;5.80;1.00;;;;;;4917129;29;20175;-51
2022/01/30 04:04:50;;;;;;;24.30;5.17;;;5.80;1.00;;;;;;4916917;29;20180;-51
2022/01/30 04:07:17;;;;;;;24.90;5.73;;;5.70;1.00;;;;;;4916625;29;20183;-51
2022/01/30 04:09:43;;;;;;;22.10;4.47;;;5.60;1.00;;;;;;4916709;29;20204;-51
2022/01/30 04:12:09;;;;;;;27.53;5.03;;;5.60;1.00;;;;;;4916751;29;20513;-55
2022/01/30 04:14:35;;;;;;;33.13;4.80;;;5.60;1.00;;;;;;4916186;29;20206;-51
2022/01/30 04:17:00;;;;;;;22.73;4.27;;;5.60;1.00;;;;;;4915825;29;20847;-52
2022/01/30 04:19:26;;;;;;;34.80;5.00;;;5.60;1.00;;;;;;4915411;29;20194;-52
2022/01/30 04:21:52;;;;;;;33.00;5.47;;;5.60;1.00;;;;;;4915449;29;20206;-51
2022/01/30 04:24:17;;;;;;;35.03;6.27;;;5.60;1.00;;;;;;4908164;29;20209;-52
2022/01/30 04:26:44;;;;;;;32.80;4.87;;;5.60;1.00;;;;;;4915129;29;20606;-52
2022/01/30 04:29:10;;;;;;;34.90;6.00;;;5.70;1.00;;;;;;4914573;29;20685;-51
2022/01/30 04:31:35;;;;;;;41.33;5.30;;;5.70;1.00;;;;;;4915857;29;20412;-52
2022/01/30 04:34:01;;;;;;;36.43;5.00;;;5.70;1.00;;;;;;4915225;29;20195;-51
2022/01/30 04:36:32;;;;;;;29.20;5.90;;;5.80;1.00;;;;;;4916570;29;20171;-52
2022/01/30 04:57:54;;;;;;;28.67;6.43;;;6.00;1.00;;;;;;4914865;29;20416;-52
2022/01/30 05:00:35;;;;;;;40.53;5.67;;;6.00;1.00;;;;;;4914861;29;20490;-53
2022/01/30 05:08:13;;;;;;;31.40;6.07;;;5.90;1.00;;;;;;4915911;29;20467;-51
2022/01/30 05:10:39;;;;;;;30.37;5.43;;;5.90;1.00;;;;;;4915692;29;20443;-52
2022/01/30 05:13:09;;;;;;;40.50;5.93;;;5.90;1.00;;;;;;4915619;29;20241;-51
2022/01/30 05:15:35;;;;;;;43.23;6.60;;;5.90;1.00;;;;;;4913651;29;20186;-52
2022/01/30 05:18:01;;;;;;;35.30;6.57;;;5.90;1.00;;;;;;4914944;29;20428;-48
2022/01/30 05:20:29;;;;;;;34.40;6.07;;;5.90;1.00;;;;;;4915399;29;20592;-49
2022/01/30 05:22:55;;;;;;;35.90;6.17;;;5.90;1.00;;;;;;4915160;29;20205;-48
2022/01/30 05:25:21;;;;;;;34.87;6.50;;;5.90;1.00;;;;;;4912721;29;20460;-48
2022/01/30 05:27:47;;;;;;;30.87;5.73;;;5.90;1.00;;;;;;4914816;29;20478;-48
2022/01/30 05:30:12;;;;;;;27.17;5.50;;;5.90;1.00;;;;;;4915248;29;20227;-49
2022/01/30 05:32:38;;;;;;;39.77;6.63;;;5.90;1.00;;;;;;4914882;29;20187;-48
2022/01/30 05:35:04;;;;;;;33.57;5.30;;;5.90;1.00;;;;;;4914078;29;20491;-48
2022/01/30 05:37:30;;;;;;;29.33;5.10;;;5.90;1.00;;;;;;4914954;29;20466;-48
2022/01/30 05:39:56;;;;;;;30.70;6.13;;;5.80;1.00;;;;;;4913536;29;20445;-48
2022/01/30 05:42:24;;;;;;;26.20;5.03;;;5.80;1.00;;;;;;4915473;29;20644;-48
2022/01/30 05:45:11;;;;;;;32.20;5.37;;;5.70;1.00;;;;;;4913607;29;20442;-48
2022/01/30 05:47:44;;;;;;;30.67;5.00;;;5.70;1.00;;;;;;4911547;29;20476;-49
2022/01/30 05:50:10;;;;;;;37.47;5.73;;;5.70;1.00;;;;;;4914079;29;20459;-48
2022/01/30 05:52:36;;;;;;;29.50;4.93;;;5.70;1.00;;;;;;4913875;29;20427;-48
2022/01/30 05:55:01;;;;;;;29.17;5.00;;;5.70;1.00;;;;;;4914032;29;20458;-48
2022/01/30 05:57:28;;;;;;;32.67;5.80;;;5.70;1.00;;;;;;4913876;29;20211;-48
2022/01/30 05:59:53;;;;;;;36.13;5.60;;;5.70;1.00;;;;;;4913848;29;20230;-48
2022/01/30 06:02:19;;;;;;;41.90;8.13;;;5.70;1.00;;;;;;4913807;29;20824;-48
2022/01/30 06:04:45;;;;;;;40.93;6.53;;;5.70;1.00;;;;;;4913116;29;20183;-49
2022/01/30 06:07:11;;;;;;;31.13;5.57;;;5.60;1.00;;;;;;4913633;29;20262;-48
2022/01/30 06:09:37;;;;;;;39.57;5.87;;;5.60;1.00;;;;;;4913648;29;20301;-48
2022/01/30 06:12:04;;;;;;;29.87;5.80;;;5.60;1.00;;;;;;4913553;29;20537;-48
2022/01/30 06:14:29;;;;;;;34.90;5.50;;;5.50;1.00;;;;;;4913537;29;20243;-48
2022/01/30 06:16:55;;;;;;;39.47;4.80;;;5.50;1.00;;;;;;4908682;29;20440;-48
2022/01/30 06:19:22;;;;;;;32.03;4.57;;;5.50;1.00;;;;;;4912755;29;20199;-48
2022/01/30 06:21:49;;;;;;;20.57;4.67;;;5.50;1.00;;;;;;4913519;29;20312;-48
2022/01/30 06:24:14;;;;;;;30.17;5.77;;;5.50;1.00;;;;;;4912896;29;20427;-49
2022/01/30 06:26:40;;;;;;;29.43;5.60;;;5.40;1.00;;;;;;4913184;29;20972;-48
2022/01/30 06:29:05;;;;;;;30.57;4.77;;;5.40;1.00;;;;;;4913423;29;20238;-48
2022/01/30 06:31:31;;;;;;;26.80;5.00;;;5.40;1.00;;;;;;4912041;29;20221;-49
2022/01/30 06:33:56;;;;;;;36.87;6.50;;;5.30;1.00;;;;;;4913382;29;20202;-48
2022/01/30 06:36:22;;;;;;;45.67;5.80;;;5.30;1.00;;;;;;4913256;29;20187;-49
2022/01/30 06:38:47;;;;;;;32.10;5.40;;;5.30;1.00;;;;;;4912484;29;20536;-49
2022/01/30 06:41:13;;;;;;;45.17;7.13;;;5.40;1.00;;;;;;4913075;29;20223;-48
2022/01/30 06:43:39;;;;;;;40.07;7.13;;;5.30;1.00;;;;;;4913348;29;20242;-48
2022/01/30 06:46:05;;;;;;;43.50;6.13;;;5.40;1.00;;;;;;4913065;29;20431;-48
2022/01/30 06:48:30;;;;;;;46.60;7.57;;;5.50;1.00;;;;;;4913056;29;20218;-49
2022/01/30 06:50:56;;;;;;;47.97;6.77;;;5.50;1.00;;;;;;4913160;29;20190;-49
2022/01/30 06:53:24;;;;;;;46.40;7.07;;;5.50;1.00;;;;;;4913360;29;20187;-48
2022/01/30 06:55:50;;;;;;;40.40;5.93;;;5.60;1.00;;;;;;4913176;29;20274;-48
2022/01/30 06:58:15;;;;;;;44.80;6.80;;;5.60;1.00;;;;;;4912993;29;20439;-49
2022/01/30 07:00:41;;;;;;;45.47;8.43;;;5.70;1.00;;;;;;4913277;29;20543;-49
2022/01/30 07:03:07;;;;;;;34.10;6.03;;;5.70;1.00;;;;;;4912685;29;20285;-50
2022/01/30 07:05:32;;;;;;;36.90;5.50;;;5.70;1.00;;;;;;4909318;29;20686;-48
2022/01/30 07:07:58;;;;;;;35.80;6.17;;;5.60;1.00;;;;;;4912748;29;20675;-48
2022/01/30 07:10:24;;;;;;;37.40;6.10;;;5.60;1.00;;;;;;4909979;29;20641;-48
2022/01/30 07:12:52;;;;;;;34.30;5.20;;;5.60;1.00;;;;;;4911614;29;20191;-49
2022/01/30 07:15:17;;;;;;;34.33;5.93;;;5.50;1.00;;;;;;4910105;29;20818;-48
2022/01/30 07:17:43;;;;;;;32.73;6.70;;;5.40;1.00;;;;;;4907482;29;20483;-48
2022/01/30 07:20:10;;;;;;;24.17;5.70;;;5.40;1.00;;;;;;4912621;29;20199;-49
2022/01/30 07:22:35;;;;;;;42.50;6.60;;;5.40;1.00;;;;;;4912122;29;20187;-49
2022/01/30 07:25:02;;;;;;;45.13;5.37;;;5.40;1.00;;;;;;4911165;29;20514;-48
2022/01/30 07:27:28;;;;;;;39.57;6.10;;;5.40;1.00;;;;;;4909265;29;20188;-49
2022/01/30 07:29:54;;;;;;;39.37;8.07;;;5.40;1.00;;;;;;4912375;29;20450;-48
2022/01/30 07:32:19;;;;;;;37.20;6.90;;;5.40;1.00;;;;;;4909842;29;20206;-48
2022/01/30 07:34:49;;;;;;;54.20;7.10;;;5.40;1.00;;;;;;4912861;29;20274;-48
2022/01/30 07:37:15;;;;;;;39.87;7.90;;;5.50;1.00;;;;;;4912161;29;20416;-49
2022/01/30 07:39:42;;;;;;;41.60;7.87;;;5.50;1.00;;;;;;4912849;29;20446;-48
2022/01/30 07:42:07;;;;;;;50.80;6.70;;;5.60;1.00;;;;;;4908434;29;20445;-49
2022/01/30 07:44:33;;;;;;;42.17;8.10;;;5.60;1.00;;;;;;4907258;29;21185;-49
2022/01/30 07:46:59;;;;;;;52.87;9.60;;;5.70;1.00;;;;;;4912148;29;20546;-49
2022/01/30 07:49:24;;;;;;;48.17;7.77;;;5.70;1.00;;;;;;4909868;29;20215;-49
2022/01/30 07:51:50;;;;;;;47.40;7.40;;;5.80;1.00;;;;;;4915574;29;20251;-49
2022/01/30 07:54:15;;;;;;;44.10;7.40;;;5.80;1.00;;;;;;4915537;29;20179;-48
2022/01/30 07:56:41;;;;;;;34.77;6.70;;;5.90;1.00;;;;;;4915458;29;20231;-49
2022/01/30 07:59:06;;;;;;;40.77;7.53;;;5.90;1.00;;;;;;4915610;29;20195;-49
2022/01/30 08:01:32;;;;;;;36.00;6.17;;;5.90;1.00;;;;;;4912125;29;20238;-49
2022/01/30 08:03:58;;;;;;;53.70;7.10;;;5.90;1.00;;;;;;4915449;29;20187;-48
2022/01/30 08:06:24;;;;;;;41.50;5.80;;;5.90;1.00;;;;;;4897436;29;20199;-57
2022/01/30 08:08:49;;;;;;;48.37;7.83;;;6.00;1.00;;;;;;4915234;29;20522;-49
2022/01/30 08:11:15;;;;;;;49.63;7.23;;;6.00;1.00;;;;;;4911964;29;20693;-48
2022/01/30 08:13:40;;;;;;;49.30;8.40;;;6.00;1.00;;;;;;4914959;29;20642;-48
2022/01/30 08:16:06;;;;;;;33.13;7.53;;;6.00;1.00;;;;;;4913005;29;20191;-48
2022/01/30 08:18:33;;;;;;;36.50;6.17;;;6.10;1.00;;;;;;4892854;29;20234;-49
2022/01/30 08:20:59;;;;;;;52.43;6.77;;;6.00;1.00;;;;;;4915202;29;20196;-48
2022/01/30 08:23:28;;;;;;;41.97;7.33;;;6.00;1.00;;;;;;4915317;29;20553;-49
2022/01/30 08:25:53;;;;;;;34.93;7.03;;;6.10;1.00;;;;;;4915169;29;20209;-49
2022/01/30 08:28:19;;;;;;;40.20;6.00;;;6.10;1.00;;;;;;4914760;29;20481;-49
2022/01/30 08:30:45;;;;;;;47.10;7.13;;;6.10;1.00;;;;;;4914224;29;20191;-49
2022/01/30 08:33:15;;;;;;;45.53;7.03;;;6.10;1.00;;;;;;4913395;29;20210;-49
2022/01/30 08:35:41;;;;;;;32.67;6.70;;;6.10;1.00;;;;;;4915083;29;20426;-48
2022/01/30 08:38:07;;;;;;;31.57;5.83;;;6.10;1.00;;;;;;4917233;29;20431;-48
2022/01/30 08:40:32;;;;;;;33.33;6.07;;;6.20;1.00;;;;;;4915212;29;20641;-48
2022/01/30 08:42:58;;;;;;;28.80;6.67;;;6.20;1.00;;;;;;4911091;29;21813;-49
2022/01/30 08:45:24;;;;;;;35.30;5.93;;;6.20;99.90;;;;;;4914284;29;20299;-48
2022/01/30 08:47:51;;;;;;;46.60;6.33;;;6.20;99.90;;;;;;4912917;29;20215;-48
2022/01/30 08:50:18;;;;;;;33.07;5.67;;;6.20;99.90;;;;;;4914633;29;20190;-48
2022/01/30 08:52:44;;;;;;;39.63;5.77;;;6.20;99.90;;;;;;4911238;29;20435;-49
2022/01/30 08:55:11;;;;;;;27.10;7.00;;;6.20;99.90;;;;;;4913919;29;20439;-48
2022/01/30 08:57:37;;;;;;;43.20;6.67;;;6.10;99.90;;;;;;4908218;29;20191;-49
2022/01/30 09:00:06;;;;;;;38.30;7.20;;;6.10;99.90;;;;;;4913428;29;20431;-49
2022/01/30 09:02:32;;;;;;;42.20;6.93;;;6.10;99.90;;;;;;4913294;29;20434;-49
2022/01/30 09:04:58;;;;;;;36.93;5.20;;;6.10;99.90;;;;;;4913087;29;20989;-49
2022/01/30 09:07:23;;;;;;;41.90;8.60;;;6.20;99.90;;;;;;4913913;29;20653;-48
2022/01/30 09:09:49;;;;;;;30.40;5.90;;;6.20;99.90;;;;;;4912421;29;20669;-49
2022/01/30 09:12:15;;;;;;;38.93;6.23;;;6.10;99.90;;;;;;4911510;29;20242;-49
2022/01/30 09:14:42;;;;;;;39.23;5.87;;;6.10;99.90;;;;;;4913901;29;20198;-49
2022/01/30 09:17:15;;;;;;;44.60;6.93;;;6.10;99.90;;;;;;4912825;29;20644;-48
2022/01/30 09:19:43;;;;;;;50.60;6.77;;;6.20;99.90;;;;;;4914054;29;21170;-49
2022/01/30 09:22:11;;;;;;;36.00;6.70;;;6.20;99.90;;;;;;4912712;29;20446;-49
2022/01/30 09:24:37;;;;;;;43.73;6.83;;;6.20;99.90;;;;;;4914249;29;21159;-49
2022/01/30 09:27:04;;;;;;;37.33;6.97;;;6.20;99.90;;;;;;4914050;29;20427;-49
2022/01/30 09:29:31;;;;;;;44.30;8.10;;;6.30;99.90;;;;;;4914174;29;20585;-49
2022/01/30 09:31:58;;;;;;;37.03;6.10;;;6.30;99.90;;;;;;4912617;29;21154;-49
2022/01/30 09:34:24;;;;;;;46.47;6.87;;;6.30;99.90;;;;;;4909893;29;20495;-48
2022/01/30 09:36:50;;;;;;;40.80;7.50;;;6.30;1.00;;;;;;4913849;29;20427;-49
2022/01/30 09:39:16;;;;;;;41.70;6.57;;;6.40;99.90;;;;;;4913857;29;20483;-49
2022/01/30 09:41:43;;;;;;;39.60;7.67;;;6.40;99.90;;;;;;4911054;29;20713;-49
2022/01/30 09:44:10;;;;;;;40.37;6.00;;;6.50;99.90;;;;;;4914042;29;20558;-46
2022/01/30 09:46:39;;;;;;;46.60;7.00;;;6.50;99.90;;;;;;4911964;29;20440;-49
2022/01/30 09:49:08;;;;;;;45.77;7.30;;;6.50;99.90;;;;;;4906121;29;20481;-49
2022/01/30 09:51:36;;;;;;;43.37;8.17;;;6.50;99.90;;;;;;4913898;29;20550;-49
2022/01/30 09:54:03;;;;;;;34.37;7.23;;;6.60;99.90;;;;;;4911817;29;20438;-48
2022/01/30 09:56:28;;;;;;;39.83;6.90;;;6.50;99.90;;;;;;4909798;29;20490;-49
2022/01/30 09:58:54;;;;;;;38.67;8.47;;;6.50;99.90;;;;;;4913215;29;20432;-49
2022/01/30 10:01:20;;;;;;;43.87;7.63;;;6.50;99.90;;;;;;4881955;29;20207;-48
2022/01/30 10:03:47;;;;;;;57.27;7.77;;;6.50;99.90;;;;;;4910955;29;20199;-49
2022/01/30 10:06:19;;;;;;;41.87;7.07;;;6.40;99.90;;;;;;4905714;29;20653;-48
2022/01/30 10:08:47;;;;;;;47.10;7.50;;;6.40;99.90;;;;;;4913988;29;20998;-48
2022/01/30 10:11:34;;;;;;;36.03;6.87;;;6.40;99.90;;;;;;4912889;29;20972;-49
2022/01/30 10:14:07;;;;;;;37.23;6.80;;;6.40;99.90;;;;;;4910277;29;20903;-48
2022/01/30 10:16:42;;;;;;;48.30;6.90;;;6.50;99.90;;;;;;4913811;29;20988;-49
2022/01/30 10:19:21;;;;;;;37.03;7.07;;;6.50;99.90;;;;;;4912582;29;20434;-49
2022/01/30 10:22:03;;;;;;;69.40;9.60;;;6.60;99.90;;;;;;4905663;29;20456;-49
2022/01/30 10:24:29;;;;;;;57.37;9.90;;;6.60;99.90;;;;;;4900318;29;21308;-48
2022/01/30 10:26:59;;;;;;;36.43;7.13;;;6.60;99.90;;;;;;4909859;29;20459;-49
2022/01/30 10:29:27;;;;;;;34.93;6.63;;;6.60;99.90;;;;;;4907851;29;20554;-49
2022/01/30 10:32:10;;;;;;;44.40;8.63;;;6.60;99.90;;;;;;4912867;29;20483;-48
2022/01/30 10:34:38;;;;;;;34.80;6.57;;;6.60;99.90;;;;;;4910455;29;20435;-49
2022/01/30 10:37:16;;;;;;;34.30;6.80;;;6.70;99.90;;;;;;4911323;29;21113;-49
2022/01/30 10:40:06;;;;;;;33.73;5.97;;;6.60;99.90;;;;;;4909261;29;20450;-49
2022/01/30 10:42:42;;;;;;;43.70;6.60;;;6.70;99.90;;;;;;4908096;29;20439;-48
2022/01/30 10:45:21;;;;;;;35.00;7.00;;;6.80;99.90;;;;;;4913345;29;20451;-48
2022/01/30 10:47:47;;;;;;;38.73;6.70;;;6.90;99.90;;;;;;4909853;29;20964;-49
2022/01/30 10:50:15;;;;;;;44.40;7.07;;;7.20;99.90;;;;;;4911880;29;20521;-48
2022/01/30 10:52:55;;;;;;;34.50;6.83;;;7.20;99.90;;;;;;4911993;29;20194;-49
2022/01/30 10:55:41;;;;;;;37.40;6.97;;;7.30;99.90;;;;;;4912918;29;20453;-49
2022/01/30 10:58:11;;;;;;;33.57;6.87;;;7.30;99.90;;;;;;4906559;29;20514;-49
2022/01/30 11:00:41;;;;;;;34.33;6.80;;;7.20;99.90;;;;;;4912878;29;20438;-49
2022/01/30 11:03:08;;;;;;;36.30;6.70;;;7.40;99.90;;;;;;4911908;29;20435;-49
2022/01/30 11:05:59;;;;;;;48.20;7.03;;;7.40;99.90;;;;;;4912911;29;20443;-49
2022/01/30 11:08:26;;;;;;;45.67;7.20;;;7.30;99.90;;;;;;4909162;29;20810;-49
2022/01/30 11:11:07;;;;;;;33.63;6.53;;;7.20;99.90;;;;;;4913032;29;20545;-49
2022/01/30 11:13:44;;;;;;;32.77;7.00;;;7.20;99.90;;;;;;4912615;29;20450;-48
2022/01/30 11:18:57;;;;;;;42.20;6.70;;;7.30;99.90;;;;;;4910714;29;20981;-49
2022/01/30 11:21:26;;;;;;;40.83;7.50;;;7.30;99.90;;;;;;4912694;29;20447;-49
2022/01/30 11:23:52;;;;;;;38.33;6.57;;;7.30;99.90;;;;;;4909583;29;20514;-49
2022/01/30 11:26:19;;;;;;;50.50;7.47;;;7.30;99.90;;;;;;4914026;29;20882;-49
2022/01/30 11:28:46;;;;;;;41.43;6.57;;;7.10;99.90;;;;;;4916261;29;20223;-49
2022/01/30 11:31:16;;;;;;;32.50;6.77;;;7.10;99.90;;;;;;4915014;29;20439;-49
2022/01/30 11:33:44;;;;;;;36.00;6.97;;;7.10;99.90;;;;;;4910983;29;20445;-49
2022/01/30 11:36:11;;;;;;;39.17;7.70;;;7.30;99.90;;;;;;4899467;29;20492;-49
2022/01/30 11:38:38;;;;;;;44.47;8.10;;;7.50;99.90;;;;;;4916171;29;20435;-49
2022/01/30 11:41:15;;;;;;;57.83;8.67;;;7.60;99.90;;;;;;4916032;29;20442;-49
2022/01/30 11:44:01;;;;;;;45.83;6.60;;;7.70;99.90;;;;;;4913243;29;20533;-49
2022/01/30 11:46:26;;;;;;;39.00;6.90;;;7.80;99.90;;;;;;4916161;29;20792;-50
2022/01/30 11:49:18;;;;;;;38.43;7.10;;;8.10;99.90;;;;;;4914454;29;20474;-49
2022/01/30 11:51:54;;;;;;;35.53;5.17;;;8.10;99.90;;;;;;4909362;29;20207;-49
2022/01/30 11:54:36;;;;;;;30.63;5.93;;;8.40;99.90;;;;;;4914811;29;20835;-49
2022/01/30 11:57:23;;;;;;;38.23;7.13;;;8.10;99.90;;;;;;4914106;29;20494;-48
2022/01/30 11:59:52;;;;;;;38.67;6.87;;;8.10;99.90;;;;;;4916728;29;20920;-48
2022/01/30 12:02:35;;;;;;;29.43;5.57;;;8.00;99.90;;;;;;4917470;29;20443;-49
2022/01/30 12:05:08;;;;;;;28.33;6.07;;;7.80;99.90;;;;;;4914493;29;20446;-50
2022/01/30 12:07:42;;;;;;;49.63;17.03;;;7.60;99.90;;;;;;4915798;29;20447;-48
2022/01/30 12:10:19;;;;;;;28.37;5.70;;;7.50;99.90;;;;;;4910189;29;20610;-48
2022/01/30 12:12:56;;;;;;;28.97;6.07;;;7.60;99.90;;;;;;4915983;29;20446;-49
2022/01/30 12:15:41;;;;;;;32.30;5.80;;;7.70;99.90;;;;;;4916458;29;20467;-49
2022/01/30 12:18:11;;;;;;;42.00;7.33;;;8.00;99.90;;;;;;4912980;29;20487;-49
2022/01/30 12:21:01;;;;;;;38.37;8.50;;;7.90;99.90;;;;;;4911637;29;20494;-49
2022/01/30 12:23:34;;;;;;;45.57;7.67;;;7.90;99.90;;;;;;4909780;29;20456;-49
2022/01/30 12:26:04;;;;;;;47.73;12.40;;;7.70;99.90;;;;;;4917321;29;20778;-49
2022/01/30 12:28:50;;;;;;;47.80;9.53;;;7.70;99.90;;;;;;4913853;29;20478;-49
2022/01/30 12:31:32;;;;;;;44.07;8.67;;;7.50;99.90;;;;;;4911303;29;20983;-49
2022/01/30 12:34:11;;;;;;;38.37;8.30;;;7.40;99.90;;;;;;4907588;29;20452;-48
2022/01/30 12:36:42;;;;;;;38.43;7.47;;;7.40;99.90;;;;;;4909055;29;20432;-49
2022/01/30 12:39:10;;;;;;;45.30;8.23;;;7.40;99.90;;;;;;4912387;29;20546;-49
2022/01/30 12:41:38;;;;;;;33.83;9.20;;;7.20;99.90;;;;;;4915889;29;20508;-49
2022/01/30 12:44:15;;;;;;;32.33;6.93;;;7.10;99.90;;;;;;4916612;29;20438;-48
2022/01/30 12:46:46;;;;;;;36.27;6.07;;;7.10;99.90;;;;;;4914294;29;20784;-48
2022/01/30 12:49:12;;;;;;;31.47;7.23;;;7.10;99.90;;;;;;4915665;29;20481;-49
2022/01/30 12:51:40;;;;;;;46.27;8.23;;;7.00;99.90;;;;;;4911520;29;20451;-49
2022/01/30 12:54:07;;;;;;;37.87;8.10;;;7.00;99.90;;;;;;4911711;29;20219;-49
2022/01/30 12:56:33;;;;;;;29.20;7.17;;;6.90;99.90;;;;;;4915719;29;20493;-49
2022/01/30 12:59:06;;;;;;;36.70;8.40;;;6.80;99.90;;;;;;4909241;29;20462;-48
2022/01/30 13:01:37;;;;;;;53.17;9.10;;;6.80;99.90;;;;;;4916153;29;20448;-49
2022/01/30 13:04:06;;;;;;;34.87;7.13;;;6.80;99.90;;;;;;4915143;29;20449;-51
2022/01/30 13:06:36;;;;;;;45.93;6.73;;;6.70;99.90;;;;;;4915814;29;20435;-49
2022/01/30 13:09:02;;;;;;;24.17;5.73;;;6.70;99.90;;;;;;4914696;29;20995;-49
2022/01/30 13:11:28;;;;;;;41.27;6.17;;;6.70;99.90;;;;;;4912570;29;20445;-49
2022/01/30 13:14:14;;;;;;;35.50;6.17;;;6.70;99.90;;;;;;4911390;29;21251;-49
2022/01/30 13:16:42;;;;;;;25.50;6.20;;;6.70;99.90;;;;;;4913656;29;20238;-49
2022/01/30 13:19:10;;;;;;;34.23;6.70;;;6.70;99.90;;;;;;4912058;29;20475;-51
2022/01/30 13:21:37;;;;;;;33.57;6.67;;;6.70;99.90;;;;;;4908734;29;20797;-52
2022/01/30 13:24:05;;;;;;;30.73;5.87;;;6.70;99.90;;;;;;4913872;29;20442;-52
2022/01/30 13:26:33;;;;;;;29.57;5.70;;;6.70;99.90;;;;;;4913558;29;20439;-51
2022/01/30 13:29:01;;;;;;;35.97;6.77;;;6.70;99.90;;;;;;4912685;29;20462;-51
2022/01/30 13:31:26;;;;;;;31.07;5.50;;;6.70;99.90;;;;;;4912185;29;20506;-52
2022/01/30 13:34:17;;;;;;;19.10;3.90;;;6.70;99.90;;;;;;4915076;29;20585;-52
2022/01/30 13:36:52;;;;;;;22.40;4.40;;;7.20;99.90;;;;;;4913920;29;20205;-52
2022/01/30 13:39:25;;;;;;;19.80;4.53;;;7.80;99.90;;;;;;4914331;29;20434;-49
2022/01/30 13:42:01;;;;;;;25.07;5.00;;;7.70;99.90;;;;;;4912060;29;20839;-49
2022/01/30 13:44:50;;;;;;;25.53;4.90;;;7.40;99.90;;;;;;4907158;29;20435;-49
2022/01/30 13:47:21;;;;;;;21.60;3.97;;;7.10;99.90;;;;;;4908238;29;20518;-49
2022/01/30 13:49:49;;;;;;;20.67;3.20;;;6.90;99.90;;;;;;4907006;29;21003;-49
2022/01/30 13:52:16;;;;;;;22.27;3.60;;;6.80;99.90;;;;;;4913092;29;20438;-49
2022/01/30 13:54:42;;;;;;;22.90;4.00;;;6.90;99.90;;;;;;4913184;29;20451;-48
2022/01/30 13:57:10;;;;;;;19.27;3.60;;;6.90;99.90;;;;;;4913387;29;20478;-52